sensor_id;sensor_type;location;lat;lon;timestamp;temperature;humidity
298;DHT22;133;49.626;9.680;2023-05-16T00:01:16;12.60;89.10
298;DHT22;133;49.626;9.680;2023-05-16T00:03:42;12.60;89.50
298;DHT22;133;49.626;9.680;2023-05-16T00:06:08;12.50;89.50
298;DHT22;133;49.626;9.680;2023-05-16T00:08:34;12.50;89.60
298;DHT22;133;49.626;9.680;2023-05-16T00:11:00;12.50;89.80
298;DHT22;133;49.626;9.680;2023-05-16T00:13:26;12.40;89.60
298;DHT22;133;49.626;9.680;2023-05-16T00:15:53;12.40;89.70
298;DHT22;133;49.626;9.680;2023-05-16T00:18:20;12.40;89.70
298;DHT22;133;49.626;9.680;2023-05-16T00:20:51;12.30;89.80
298;DHT22;133;49.626;9.680;2023-05-16T00:23:17;12.30;89.90
298;DHT22;133;49.626;9.680;2023-05-16T00:25:43;12.20;90.00
298;DHT22;133;49.626;9.680;2023-05-16T00:28:09;12.20;89.90
298;DHT22;133;49.626;9.680;2023-05-16T00:30:34;12.20;90.00
298;DHT22;133;49.626;9.680;2023-05-16T00:33:00;12.10;90.20
298;DHT22;133;49.626;9.680;2023-05-16T00:35:26;12.10;90.20
298;DHT22;133;49.626;9.680;2023-05-16T00:37:52;12.00;90.40
298;DHT22;133;49.626;9.680;2023-05-16T00:40:18;12.00;90.40
298;DHT22;133;49.626;9.680;2023-05-16T00:42:43;11.90;90.50
298;DHT22;133;49.626;9.680;2023-05-16T00:45:09;11.90;90.70
298;DHT22;133;49.626;9.680;2023-05-16T00:47:35;11.90;90.70
298;DHT22;133;49.626;9.680;2023-05-16T00:50:02;11.80;90.90
298;DHT22;133;49.626;9.680;2023-05-16T00:52:29;11.80;91.30
298;DHT22;133;49.626;9.680;2023-05-16T00:54:56;11.80;91.50
298;DHT22;133;49.626;9.680;2023-05-16T00:57:21;11.80;91.50
298;DHT22;133;49.626;9.680;2023-05-16T00:59:47;11.90;91.60
298;DHT22;133;49.626;9.680;2023-05-16T01:02:13;11.80;91.60
298;DHT22;133;49.626;9.680;2023-05-16T01:04:39;11.80;91.50
298;DHT22;133;49.626;9.680;2023-05-16T01:07:05;11.80;91.60
298;DHT22;133;49.626;9.680;2023-05-16T01:09:31;11.80;91.70
298;DHT22;133;49.626;9.680;2023-05-16T01:14:50;11.80;92.00
298;DHT22;133;49.626;9.680;2023-05-16T01:22:54;11.90;92.00
298;DHT22;133;49.626;9.680;2023-05-16T01:27:56;11.80;91.70
298;DHT22;133;49.626;9.680;2023-05-16T01:30:23;11.70;91.30
298;DHT22;133;49.626;9.680;2023-05-16T01:32:49;11.60;91.50
298;DHT22;133;49.626;9.680;2023-05-16T01:35:16;11.50;91.90
298;DHT22;133;49.626;9.680;2023-05-16T01:37:49;11.50;92.10
298;DHT22;133;49.626;9.680;2023-05-16T01:40:29;11.50;92.20
298;DHT22;133;49.626;9.680;2023-05-16T01:42:59;11.50;92.20
298;DHT22;133;49.626;9.680;2023-05-16T01:45:31;11.50;92.20
298;DHT22;133;49.626;9.680;2023-05-16T01:48:09;11.40;92.40
298;DHT22;133;49.626;9.680;2023-05-16T01:50:38;11.40;92.00
298;DHT22;133;49.626;9.680;2023-05-16T01:53:08;11.30;92.00
298;DHT22;133;49.626;9.680;2023-05-16T01:55:43;11.30;92.30
298;DHT22;133;49.626;9.680;2023-05-16T01:58:12;11.30;92.50
298;DHT22;133;49.626;9.680;2023-05-16T02:00:39;11.30;92.50
298;DHT22;133;49.626;9.680;2023-05-16T02:03:05;11.30;92.60
298;DHT22;133;49.626;9.680;2023-05-16T02:05:31;11.30;92.50
298;DHT22;133;49.626;9.680;2023-05-16T02:07:57;11.30;92.50
298;DHT22;133;49.626;9.680;2023-05-16T02:10:23;11.30;92.80
298;DHT22;133;49.626;9.680;2023-05-16T02:12:49;11.30;92.60
298;DHT22;133;49.626;9.680;2023-05-16T02:15:15;11.30;92.30
298;DHT22;133;49.626;9.680;2023-05-16T02:17:41;11.30;92.20
298;DHT22;133;49.626;9.680;2023-05-16T02:20:07;11.30;92.30
298;DHT22;133;49.626;9.680;2023-05-16T02:22:36;11.20;92.60
298;DHT22;133;49.626;9.680;2023-05-16T02:25:04;11.10;93.10
298;DHT22;133;49.626;9.680;2023-05-16T02:27:30;11.00;93.20
298;DHT22;133;49.626;9.680;2023-05-16T02:29:56;10.90;93.00
298;DHT22;133;49.626;9.680;2023-05-16T02:32:22;10.90;93.50
298;DHT22;133;49.626;9.680;2023-05-16T02:34:47;10.90;93.40
298;DHT22;133;49.626;9.680;2023-05-16T02:37:13;10.80;93.50
298;DHT22;133;49.626;9.680;2023-05-16T02:39:39;10.90;93.40
298;DHT22;133;49.626;9.680;2023-05-16T02:42:07;10.80;93.40
298;DHT22;133;49.626;9.680;2023-05-16T02:44:33;10.90;93.60
298;DHT22;133;49.626;9.680;2023-05-16T02:46:58;10.80;93.50
298;DHT22;133;49.626;9.680;2023-05-16T02:49:24;10.90;93.70
298;DHT22;133;49.626;9.680;2023-05-16T02:51:50;10.90;93.60
298;DHT22;133;49.626;9.680;2023-05-16T02:54:16;10.90;93.70
298;DHT22;133;49.626;9.680;2023-05-16T02:56:42;10.90;93.80
298;DHT22;133;49.626;9.680;2023-05-16T02:59:07;10.90;93.90
298;DHT22;133;49.626;9.680;2023-05-16T03:01:33;11.00;93.80
298;DHT22;133;49.626;9.680;2023-05-16T03:03:59;10.90;93.60
298;DHT22;133;49.626;9.680;2023-05-16T03:06:25;10.90;93.40
298;DHT22;133;49.626;9.680;2023-05-16T03:08:50;11.00;93.60
298;DHT22;133;49.626;9.680;2023-05-16T03:11:17;11.00;93.30
298;DHT22;133;49.626;9.680;2023-05-16T03:13:47;11.00;93.50
298;DHT22;133;49.626;9.680;2023-05-16T03:16:12;11.10;93.40
298;DHT22;133;49.626;9.680;2023-05-16T03:18:38;11.10;93.40
298;DHT22;133;49.626;9.680;2023-05-16T03:21:04;11.10;93.40
298;DHT22;133;49.626;9.680;2023-05-16T03:23:29;11.20;93.30
298;DHT22;133;49.626;9.680;2023-05-16T03:25:55;11.20;93.50
298;DHT22;133;49.626;9.680;2023-05-16T03:28:21;11.40;93.30
298;DHT22;133;49.626;9.680;2023-05-16T03:30:46;11.40;93.40
298;DHT22;133;49.626;9.680;2023-05-16T03:33:12;11.40;93.60
298;DHT22;133;49.626;9.680;2023-05-16T03:35:38;11.50;93.60
298;DHT22;133;49.626;9.680;2023-05-16T03:38:04;11.50;93.70
298;DHT22;133;49.626;9.680;2023-05-16T03:40:30;11.60;93.80
298;DHT22;133;49.626;9.680;2023-05-16T03:42:56;11.70;93.80
298;DHT22;133;49.626;9.680;2023-05-16T03:45:21;11.70;93.80
298;DHT22;133;49.626;9.680;2023-05-16T03:47:50;11.80;93.70
298;DHT22;133;49.626;9.680;2023-05-16T03:50:16;11.90;93.80
298;DHT22;133;49.626;9.680;2023-05-16T03:52:42;11.90;93.90
298;DHT22;133;49.626;9.680;2023-05-16T03:55:08;12.00;93.90
298;DHT22;133;49.626;9.680;2023-05-16T03:57:35;12.10;93.80
298;DHT22;133;49.626;9.680;2023-05-16T04:00:02;12.10;93.60
298;DHT22;133;49.626;9.680;2023-05-16T04:02:31;12.10;93.80
298;DHT22;133;49.626;9.680;2023-05-16T04:04:56;12.00;93.80
298;DHT22;133;49.626;9.680;2023-05-16T04:07:22;12.10;94.30
298;DHT22;133;49.626;9.680;2023-05-16T04:09:48;12.20;93.80
298;DHT22;133;49.626;9.680;2023-05-16T04:12:13;12.20;93.40
298;DHT22;133;49.626;9.680;2023-05-16T04:14:39;12.10;93.50
298;DHT22;133;49.626;9.680;2023-05-16T04:17:04;12.10;93.40
298;DHT22;133;49.626;9.680;2023-05-16T04:19:30;12.10;93.60
298;DHT22;133;49.626;9.680;2023-05-16T04:21:55;12.10;93.40
298;DHT22;133;49.626;9.680;2023-05-16T04:24:21;12.10;93.30
298;DHT22;133;49.626;9.680;2023-05-16T04:26:50;12.10;93.30
298;DHT22;133;49.626;9.680;2023-05-16T04:29:16;12.10;93.40
298;DHT22;133;49.626;9.680;2023-05-16T04:31:42;12.20;93.40
298;DHT22;133;49.626;9.680;2023-05-16T04:34:08;12.30;93.10
298;DHT22;133;49.626;9.680;2023-05-16T04:36:33;12.20;93.60
298;DHT22;133;49.626;9.680;2023-05-16T04:38:59;12.20;93.70
298;DHT22;133;49.626;9.680;2023-05-16T04:41:25;12.30;93.60
298;DHT22;133;49.626;9.680;2023-05-16T04:43:51;12.30;93.90
298;DHT22;133;49.626;9.680;2023-05-16T04:46:18;12.30;94.00
298;DHT22;133;49.626;9.680;2023-05-16T04:48:45;12.30;94.30
298;DHT22;133;49.626;9.680;2023-05-16T04:51:10;12.40;94.00
298;DHT22;133;49.626;9.680;2023-05-16T04:53:36;12.40;93.60
298;DHT22;133;49.626;9.680;2023-05-16T04:56:02;12.40;93.30
298;DHT22;133;49.626;9.680;2023-05-16T04:58:29;12.50;93.40
298;DHT22;133;49.626;9.680;2023-05-16T05:00:55;12.50;93.40
298;DHT22;133;49.626;9.680;2023-05-16T05:03:22;12.40;94.10
298;DHT22;133;49.626;9.680;2023-05-16T05:05:48;12.40;94.30
298;DHT22;133;49.626;9.680;2023-05-16T05:08:13;12.40;94.40
298;DHT22;133;49.626;9.680;2023-05-16T05:10:39;12.50;94.30
298;DHT22;133;49.626;9.680;2023-05-16T05:13:05;12.60;94.20
298;DHT22;133;49.626;9.680;2023-05-16T05:15:30;12.60;93.90
298;DHT22;133;49.626;9.680;2023-05-16T05:17:56;12.60;94.20
298;DHT22;133;49.626;9.680;2023-05-16T05:20:22;12.60;94.40
298;DHT22;133;49.626;9.680;2023-05-16T05:22:47;12.50;94.20
298;DHT22;133;49.626;9.680;2023-05-16T05:25:13;12.50;94.10
298;DHT22;133;49.626;9.680;2023-05-16T05:27:39;12.50;94.00
298;DHT22;133;49.626;9.680;2023-05-16T05:30:05;12.50;94.10
298;DHT22;133;49.626;9.680;2023-05-16T05:32:31;12.50;93.80
298;DHT22;133;49.626;9.680;2023-05-16T05:34:57;12.50;94.40
298;DHT22;133;49.626;9.680;2023-05-16T05:37:22;12.50;93.90
298;DHT22;133;49.626;9.680;2023-05-16T05:39:48;12.50;93.80
298;DHT22;133;49.626;9.680;2023-05-16T05:42:14;12.50;94.10
298;DHT22;133;49.626;9.680;2023-05-16T05:44:40;12.70;94.10
298;DHT22;133;49.626;9.680;2023-05-16T05:47:06;12.60;94.10
298;DHT22;133;49.626;9.680;2023-05-16T05:49:32;12.60;94.20
298;DHT22;133;49.626;9.680;2023-05-16T05:51:58;12.50;94.30
298;DHT22;133;49.626;9.680;2023-05-16T05:54:24;12.30;95.00
298;DHT22;133;49.626;9.680;2023-05-16T05:56:49;12.30;95.40
298;DHT22;133;49.626;9.680;2023-05-16T05:59:15;12.30;96.10
298;DHT22;133;49.626;9.680;2023-05-16T06:01:41;12.20;96.60
298;DHT22;133;49.626;9.680;2023-05-16T06:04:09;12.20;96.60
298;DHT22;133;49.626;9.680;2023-05-16T06:06:34;12.30;96.80
298;DHT22;133;49.626;9.680;2023-05-16T06:09:00;12.40;96.80
298;DHT22;133;49.626;9.680;2023-05-16T06:11:26;12.40;96.80
298;DHT22;133;49.626;9.680;2023-05-16T06:13:51;12.40;96.60
298;DHT22;133;49.626;9.680;2023-05-16T06:16:17;12.40;96.50
298;DHT22;133;49.626;9.680;2023-05-16T06:18:43;12.40;96.40
298;DHT22;133;49.626;9.680;2023-05-16T06:21:08;12.40;96.50
298;DHT22;133;49.626;9.680;2023-05-16T06:23:34;12.40;96.60
298;DHT22;133;49.626;9.680;2023-05-16T06:26:01;12.40;97.20
298;DHT22;133;49.626;9.680;2023-05-16T06:28:27;12.40;96.60
298;DHT22;133;49.626;9.680;2023-05-16T06:30:53;12.40;96.80
298;DHT22;133;49.626;9.680;2023-05-16T06:33:19;12.40;96.60
298;DHT22;133;49.626;9.680;2023-05-16T06:35:44;12.40;96.70
298;DHT22;133;49.626;9.680;2023-05-16T06:38:10;12.40;96.90
298;DHT22;133;49.626;9.680;2023-05-16T06:40:36;12.40;96.30
298;DHT22;133;49.626;9.680;2023-05-16T06:43:02;12.40;96.80
298;DHT22;133;49.626;9.680;2023-05-16T06:45:27;12.40;96.90
298;DHT22;133;49.626;9.680;2023-05-16T06:47:54;12.40;96.90
298;DHT22;133;49.626;9.680;2023-05-16T06:50:20;12.40;97.10
298;DHT22;133;49.626;9.680;2023-05-16T06:52:45;12.40;97.30
298;DHT22;133;49.626;9.680;2023-05-16T06:55:12;12.50;97.10
298;DHT22;133;49.626;9.680;2023-05-16T06:57:38;12.50;97.30
298;DHT22;133;49.626;9.680;2023-05-16T07:00:04;12.60;97.00
298;DHT22;133;49.626;9.680;2023-05-16T07:02:30;12.60;96.90
298;DHT22;133;49.626;9.680;2023-05-16T07:04:56;12.60;97.30
298;DHT22;133;49.626;9.680;2023-05-16T07:07:21;12.60;97.20
298;DHT22;133;49.626;9.680;2023-05-16T07:09:47;12.60;96.70
298;DHT22;133;49.626;9.680;2023-05-16T07:12:13;12.70;97.20
298;DHT22;133;49.626;9.680;2023-05-16T07:14:38;12.80;97.30
298;DHT22;133;49.626;9.680;2023-05-16T07:17:05;12.90;97.10
298;DHT22;133;49.626;9.680;2023-05-16T07:19:30;12.90;97.00
298;DHT22;133;49.626;9.680;2023-05-16T07:21:56;13.10;96.30
298;DHT22;133;49.626;9.680;2023-05-16T07:24:22;13.20;96.10
298;DHT22;133;49.626;9.680;2023-05-16T07:26:47;13.30;96.00
298;DHT22;133;49.626;9.680;2023-05-16T07:29:13;13.40;95.70
298;DHT22;133;49.626;9.680;2023-05-16T07:31:39;13.30;96.30
298;DHT22;133;49.626;9.680;2023-05-16T07:34:05;13.30;96.00
298;DHT22;133;49.626;9.680;2023-05-16T07:36:32;13.40;95.70
298;DHT22;133;49.626;9.680;2023-05-16T07:38:58;13.50;95.70
298;DHT22;133;49.626;9.680;2023-05-16T07:41:23;13.50;94.70
298;DHT22;133;49.626;9.680;2023-05-16T07:43:49;13.60;94.80
298;DHT22;133;49.626;9.680;2023-05-16T07:46:15;13.60;95.20
298;DHT22;133;49.626;9.680;2023-05-16T07:48:41;13.60;95.20
298;DHT22;133;49.626;9.680;2023-05-16T07:51:07;13.50;94.80
298;DHT22;133;49.626;9.680;2023-05-16T07:53:32;13.50;95.30
298;DHT22;133;49.626;9.680;2023-05-16T07:55:58;13.60;94.30
298;DHT22;133;49.626;9.680;2023-05-16T07:58:23;13.70;95.00
298;DHT22;133;49.626;9.680;2023-05-16T08:00:49;13.70;94.00
298;DHT22;133;49.626;9.680;2023-05-16T08:03:15;13.80;94.40
298;DHT22;133;49.626;9.680;2023-05-16T08:05:41;13.60;94.20
298;DHT22;133;49.626;9.680;2023-05-16T08:08:06;13.70;93.90
298;DHT22;133;49.626;9.680;2023-05-16T08:10:32;13.60;93.50
298;DHT22;133;49.626;9.680;2023-05-16T08:12:58;13.60;92.80
298;DHT22;133;49.626;9.680;2023-05-16T08:15:25;13.70;92.40
298;DHT22;133;49.626;9.680;2023-05-16T08:17:51;13.70;92.70
298;DHT22;133;49.626;9.680;2023-05-16T08:20:17;13.70;92.90
298;DHT22;133;49.626;9.680;2023-05-16T08:22:42;13.80;92.70
298;DHT22;133;49.626;9.680;2023-05-16T08:25:08;13.70;92.30
298;DHT22;133;49.626;9.680;2023-05-16T08:27:34;13.70;91.20
298;DHT22;133;49.626;9.680;2023-05-16T08:29:59;13.60;91.70
298;DHT22;133;49.626;9.680;2023-05-16T08:32:25;13.70;91.90
298;DHT22;133;49.626;9.680;2023-05-16T08:34:50;13.60;92.30
298;DHT22;133;49.626;9.680;2023-05-16T08:37:16;13.60;92.30
298;DHT22;133;49.626;9.680;2023-05-16T08:39:42;13.70;91.40
298;DHT22;133;49.626;9.680;2023-05-16T08:42:07;13.60;91.90
298;DHT22;133;49.626;9.680;2023-05-16T08:44:33;13.60;92.20
298;DHT22;133;49.626;9.680;2023-05-16T08:47:06;13.70;92.60
298;DHT22;133;49.626;9.680;2023-05-16T08:49:34;13.80;92.30
298;DHT22;133;49.626;9.680;2023-05-16T08:52:02;14.00;92.10
298;DHT22;133;49.626;9.680;2023-05-16T08:54:30;14.10;91.70
298;DHT22;133;49.626;9.680;2023-05-16T08:56:57;14.00;91.20
298;DHT22;133;49.626;9.680;2023-05-16T08:59:24;14.10;90.70
298;DHT22;133;49.626;9.680;2023-05-16T09:01:50;14.10;91.20
298;DHT22;133;49.626;9.680;2023-05-16T09:04:16;14.10;90.50
298;DHT22;133;49.626;9.680;2023-05-16T09:06:41;14.00;90.10
298;DHT22;133;49.626;9.680;2023-05-16T09:09:07;14.10;90.00
298;DHT22;133;49.626;9.680;2023-05-16T09:11:37;14.10;89.40
298;DHT22;133;49.626;9.680;2023-05-16T09:14:03;14.00;90.00
298;DHT22;133;49.626;9.680;2023-05-16T09:16:30;14.00;90.50
298;DHT22;133;49.626;9.680;2023-05-16T09:18:57;14.10;90.40
298;DHT22;133;49.626;9.680;2023-05-16T09:21:29;14.30;90.30
298;DHT22;133;49.626;9.680;2023-05-16T09:24:01;14.30;89.70
298;DHT22;133;49.626;9.680;2023-05-16T09:26:27;14.50;89.00
298;DHT22;133;49.626;9.680;2023-05-16T09:28:53;14.60;87.90
298;DHT22;133;49.626;9.680;2023-05-16T09:33:47;14.60;87.80
298;DHT22;133;49.626;9.680;2023-05-16T09:36:14;14.70;87.30
298;DHT22;133;49.626;9.680;2023-05-16T09:38:40;14.70;87.10
298;DHT22;133;49.626;9.680;2023-05-16T09:41:08;14.40;86.90
298;DHT22;133;49.626;9.680;2023-05-16T09:43:37;14.50;86.50
298;DHT22;133;49.626;9.680;2023-05-16T09:46:03;14.20;86.10
298;DHT22;133;49.626;9.680;2023-05-16T09:48:32;13.90;87.00
298;DHT22;133;49.626;9.680;2023-05-16T09:50:58;13.90;88.00
298;DHT22;133;49.626;9.680;2023-05-16T09:53:32;14.00;88.50
298;DHT22;133;49.626;9.680;2023-05-16T09:56:12;14.00;88.20
298;DHT22;133;49.626;9.680;2023-05-16T09:58:40;14.20;87.70
298;DHT22;133;49.626;9.680;2023-05-16T10:01:06;14.40;86.40
298;DHT22;133;49.626;9.680;2023-05-16T10:03:37;14.50;85.20
298;DHT22;133;49.626;9.680;2023-05-16T10:06:04;15.40;83.90
298;DHT22;133;49.626;9.680;2023-05-16T10:08:31;16.40;80.00
298;DHT22;133;49.626;9.680;2023-05-16T10:11:01;16.50;77.70
298;DHT22;133;49.626;9.680;2023-05-16T10:13:29;16.50;78.30
298;DHT22;133;49.626;9.680;2023-05-16T10:15:57;16.60;76.70
298;DHT22;133;49.626;9.680;2023-05-16T10:18:33;16.60;77.80
298;DHT22;133;49.626;9.680;2023-05-16T10:21:13;16.60;76.70
298;DHT22;133;49.626;9.680;2023-05-16T10:23:43;16.50;77.30
298;DHT22;133;49.626;9.680;2023-05-16T10:26:11;16.50;77.90
298;DHT22;133;49.626;9.680;2023-05-16T10:28:39;16.30;77.50
298;DHT22;133;49.626;9.680;2023-05-16T10:31:06;16.20;76.50
298;DHT22;133;49.626;9.680;2023-05-16T10:33:32;16.10;77.20
298;DHT22;133;49.626;9.680;2023-05-16T10:35:58;16.10;78.20
298;DHT22;133;49.626;9.680;2023-05-16T10:38:25;16.10;77.00
298;DHT22;133;49.626;9.680;2023-05-16T10:40:51;16.00;77.90
298;DHT22;133;49.626;9.680;2023-05-16T10:43:28;15.70;77.60
298;DHT22;133;49.626;9.680;2023-05-16T10:46:03;15.50;78.60
298;DHT22;133;49.626;9.680;2023-05-16T10:48:36;15.40;79.70
298;DHT22;133;49.626;9.680;2023-05-16T10:53:50;15.20;79.40
298;DHT22;133;49.626;9.680;2023-05-16T10:56:25;15.30;80.50
298;DHT22;133;49.626;9.680;2023-05-16T10:58:52;15.50;79.90
298;DHT22;133;49.626;9.680;2023-05-16T11:09:06;15.90;76.90
298;DHT22;133;49.626;9.680;2023-05-16T11:11:46;15.90;77.50
298;DHT22;133;49.626;9.680;2023-05-16T11:19:44;15.50;77.80
298;DHT22;133;49.626;9.680;2023-05-16T11:22:21;14.80;79.20
298;DHT22;133;49.626;9.680;2023-05-16T11:25:01;14.60;79.90
298;DHT22;133;49.626;9.680;2023-05-16T11:27:32;14.40;80.60
298;DHT22;133;49.626;9.680;2023-05-16T11:32:33;14.10;81.70
298;DHT22;133;49.626;9.680;2023-05-16T11:35:01;13.90;82.10
298;DHT22;133;49.626;9.680;2023-05-16T11:37:28;13.90;82.60
298;DHT22;133;49.626;9.680;2023-05-16T11:40:04;14.00;82.00
298;DHT22;133;49.626;9.680;2023-05-16T11:42:50;14.00;81.80
298;DHT22;133;49.626;9.680;2023-05-16T11:45:20;13.90;81.60
298;DHT22;133;49.626;9.680;2023-05-16T11:47:48;13.90;81.10
298;DHT22;133;49.626;9.680;2023-05-16T11:50:16;13.80;81.50
298;DHT22;133;49.626;9.680;2023-05-16T11:52:44;13.90;81.70
298;DHT22;133;49.626;9.680;2023-05-16T11:55:10;14.10;81.00
298;DHT22;133;49.626;9.680;2023-05-16T11:57:39;14.10;80.70
298;DHT22;133;49.626;9.680;2023-05-16T12:00:14;14.30;80.40
298;DHT22;133;49.626;9.680;2023-05-16T12:02:45;14.40;80.10
298;DHT22;133;49.626;9.680;2023-05-16T12:05:12;14.50;79.80
298;DHT22;133;49.626;9.680;2023-05-16T12:07:39;14.70;79.20
298;DHT22;133;49.626;9.680;2023-05-16T12:10:09;14.90;79.60
298;DHT22;133;49.626;9.680;2023-05-16T12:12:36;15.10;78.20
298;DHT22;133;49.626;9.680;2023-05-16T12:15:03;15.30;77.50
298;DHT22;133;49.626;9.680;2023-05-16T12:17:31;15.30;76.40
298;DHT22;133;49.626;9.680;2023-05-16T12:19:57;15.40;76.20
298;DHT22;133;49.626;9.680;2023-05-16T12:22:24;15.40;76.40
298;DHT22;133;49.626;9.680;2023-05-16T12:24:50;15.40;75.50
298;DHT22;133;49.626;9.680;2023-05-16T12:27:24;15.50;76.10
298;DHT22;133;49.626;9.680;2023-05-16T12:29:49;15.50;75.70
298;DHT22;133;49.626;9.680;2023-05-16T12:32:19;15.60;74.50
298;DHT22;133;49.626;9.680;2023-05-16T12:34:52;15.50;73.80
298;DHT22;133;49.626;9.680;2023-05-16T12:37:18;15.60;75.60
298;DHT22;133;49.626;9.680;2023-05-16T12:39:43;15.80;74.70
298;DHT22;133;49.626;9.680;2023-05-16T12:42:13;15.90;74.50
298;DHT22;133;49.626;9.680;2023-05-16T12:44:39;15.80;73.20
298;DHT22;133;49.626;9.680;2023-05-16T12:47:14;15.60;75.10
298;DHT22;133;49.626;9.680;2023-05-16T12:49:44;15.60;75.40
298;DHT22;133;49.626;9.680;2023-05-16T12:52:16;15.70;76.10
298;DHT22;133;49.626;9.680;2023-05-16T12:54:44;15.60;76.10
298;DHT22;133;49.626;9.680;2023-05-16T12:57:09;15.70;76.70
298;DHT22;133;49.626;9.680;2023-05-16T12:59:35;15.80;76.30
298;DHT22;133;49.626;9.680;2023-05-16T13:02:02;16.00;75.10
298;DHT22;133;49.626;9.680;2023-05-16T13:04:28;16.10;74.80
298;DHT22;133;49.626;9.680;2023-05-16T13:06:54;16.10;75.00
298;DHT22;133;49.626;9.680;2023-05-16T13:09:20;16.30;73.20
298;DHT22;133;49.626;9.680;2023-05-16T13:11:46;16.30;71.70
298;DHT22;133;49.626;9.680;2023-05-16T13:14:11;16.40;72.60
298;DHT22;133;49.626;9.680;2023-05-16T13:16:37;16.60;71.80
298;DHT22;133;49.626;9.680;2023-05-16T13:19:03;16.70;70.70
298;DHT22;133;49.626;9.680;2023-05-16T13:21:29;16.70;71.30
298;DHT22;133;49.626;9.680;2023-05-16T13:23:56;16.40;69.80
298;DHT22;133;49.626;9.680;2023-05-16T13:26:22;16.50;69.60
298;DHT22;133;49.626;9.680;2023-05-16T13:28:48;16.40;69.80
298;DHT22;133;49.626;9.680;2023-05-16T13:31:17;16.30;69.90
298;DHT22;133;49.626;9.680;2023-05-16T13:33:43;16.10;68.80
298;DHT22;133;49.626;9.680;2023-05-16T13:36:09;16.00;67.60
298;DHT22;133;49.626;9.680;2023-05-16T13:38:35;16.20;68.80
298;DHT22;133;49.626;9.680;2023-05-16T13:41:00;16.20;68.40
298;DHT22;133;49.626;9.680;2023-05-16T13:43:26;16.40;68.70
298;DHT22;133;49.626;9.680;2023-05-16T13:45:51;16.50;68.50
298;DHT22;133;49.626;9.680;2023-05-16T13:48:17;16.80;67.20
298;DHT22;133;49.626;9.680;2023-05-16T13:50:43;17.10;67.20
298;DHT22;133;49.626;9.680;2023-05-16T13:53:09;17.10;64.90
298;DHT22;133;49.626;9.680;2023-05-16T13:55:35;17.30;64.70
298;DHT22;133;49.626;9.680;2023-05-16T13:58:00;17.70;63.10
298;DHT22;133;49.626;9.680;2023-05-16T14:00:27;17.80;62.20
298;DHT22;133;49.626;9.680;2023-05-16T14:02:53;18.00;61.90
298;DHT22;133;49.626;9.680;2023-05-16T14:05:19;17.90;62.20
298;DHT22;133;49.626;9.680;2023-05-16T14:07:44;18.00;62.30
298;DHT22;133;49.626;9.680;2023-05-16T14:10:10;18.00;62.20
298;DHT22;133;49.626;9.680;2023-05-16T14:12:36;17.90;61.20
298;DHT22;133;49.626;9.680;2023-05-16T14:15:03;18.00;61.40
298;DHT22;133;49.626;9.680;2023-05-16T14:17:28;18.10;61.50
298;DHT22;133;49.626;9.680;2023-05-16T14:19:54;18.20;61.10
298;DHT22;133;49.626;9.680;2023-05-16T14:22:20;18.10;62.60
298;DHT22;133;49.626;9.680;2023-05-16T14:24:45;18.30;62.90
298;DHT22;133;49.626;9.680;2023-05-16T14:27:11;18.30;61.60
298;DHT22;133;49.626;9.680;2023-05-16T14:29:36;18.40;61.20
298;DHT22;133;49.626;9.680;2023-05-16T14:32:03;18.40;60.40
298;DHT22;133;49.626;9.680;2023-05-16T14:34:30;18.30;59.70
298;DHT22;133;49.626;9.680;2023-05-16T14:36:55;18.10;61.50
298;DHT22;133;49.626;9.680;2023-05-16T14:39:21;17.90;60.40
298;DHT22;133;49.626;9.680;2023-05-16T14:41:46;17.70;60.80
298;DHT22;133;49.626;9.680;2023-05-16T14:44:12;17.80;60.60
298;DHT22;133;49.626;9.680;2023-05-16T14:46:38;17.60;59.50
298;DHT22;133;49.626;9.680;2023-05-16T14:49:03;17.70;59.60
298;DHT22;133;49.626;9.680;2023-05-16T14:51:29;17.80;59.30
298;DHT22;133;49.626;9.680;2023-05-16T14:53:56;17.80;60.50
298;DHT22;133;49.626;9.680;2023-05-16T14:56:21;17.70;58.50
298;DHT22;133;49.626;9.680;2023-05-16T14:58:47;17.40;59.70
298;DHT22;133;49.626;9.680;2023-05-16T15:01:12;17.30;59.00
298;DHT22;133;49.626;9.680;2023-05-16T15:03:39;17.00;59.10
298;DHT22;133;49.626;9.680;2023-05-16T15:06:06;16.90;59.70
298;DHT22;133;49.626;9.680;2023-05-16T15:08:33;16.80;60.40
298;DHT22;133;49.626;9.680;2023-05-16T15:10:59;16.80;60.90
298;DHT22;133;49.626;9.680;2023-05-16T15:13:25;16.50;60.70
298;DHT22;133;49.626;9.680;2023-05-16T15:15:51;16.50;60.00
298;DHT22;133;49.626;9.680;2023-05-16T15:18:16;16.40;59.90
298;DHT22;133;49.626;9.680;2023-05-16T15:20:42;16.50;59.90
298;DHT22;133;49.626;9.680;2023-05-16T15:23:08;16.70;59.50
298;DHT22;133;49.626;9.680;2023-05-16T15:25:34;16.90;59.30
298;DHT22;133;49.626;9.680;2023-05-16T15:27:59;17.00;60.50
298;DHT22;133;49.626;9.680;2023-05-16T15:30:25;17.20;59.60
298;DHT22;133;49.626;9.680;2023-05-16T15:32:51;17.30;59.30
298;DHT22;133;49.626;9.680;2023-05-16T15:35:17;17.40;58.60
298;DHT22;133;49.626;9.680;2023-05-16T15:37:42;17.30;57.10
298;DHT22;133;49.626;9.680;2023-05-16T15:40:08;17.30;57.20
298;DHT22;133;49.626;9.680;2023-05-16T15:42:35;17.30;57.10
298;DHT22;133;49.626;9.680;2023-05-16T15:45:01;17.20;56.80
298;DHT22;133;49.626;9.680;2023-05-16T15:47:27;17.20;56.40
298;DHT22;133;49.626;9.680;2023-05-16T15:49:53;17.20;57.60
298;DHT22;133;49.626;9.680;2023-05-16T15:52:18;17.40;58.00
298;DHT22;133;49.626;9.680;2023-05-16T15:54:44;17.60;58.80
298;DHT22;133;49.626;9.680;2023-05-16T15:57:10;17.80;56.30
298;DHT22;133;49.626;9.680;2023-05-16T15:59:36;17.80;55.70
298;DHT22;133;49.626;9.680;2023-05-16T16:02:01;17.90;56.90
298;DHT22;133;49.626;9.680;2023-05-16T16:04:30;18.10;57.30
298;DHT22;133;49.626;9.680;2023-05-16T16:06:55;18.30;54.00
298;DHT22;133;49.626;9.680;2023-05-16T16:09:21;18.30;52.10
298;DHT22;133;49.626;9.680;2023-05-16T16:11:47;18.40;53.30
298;DHT22;133;49.626;9.680;2023-05-16T16:14:14;18.40;54.00
298;DHT22;133;49.626;9.680;2023-05-16T16:16:39;18.30;53.80
298;DHT22;133;49.626;9.680;2023-05-16T16:19:06;18.20;53.60
298;DHT22;133;49.626;9.680;2023-05-16T16:21:31;18.10;53.70
298;DHT22;133;49.626;9.680;2023-05-16T16:23:57;18.30;53.50
298;DHT22;133;49.626;9.680;2023-05-16T16:26:23;18.20;52.00
298;DHT22;133;49.626;9.680;2023-05-16T16:28:49;18.10;52.70
298;DHT22;133;49.626;9.680;2023-05-16T16:31:15;17.80;53.30
298;DHT22;133;49.626;9.680;2023-05-16T16:33:40;17.60;53.80
298;DHT22;133;49.626;9.680;2023-05-16T16:36:07;17.70;55.00
298;DHT22;133;49.626;9.680;2023-05-16T16:38:33;17.60;55.30
298;DHT22;133;49.626;9.680;2023-05-16T16:40:58;17.20;53.80
298;DHT22;133;49.626;9.680;2023-05-16T16:43:24;17.10;54.60
298;DHT22;133;49.626;9.680;2023-05-16T16:45:50;16.90;53.80
298;DHT22;133;49.626;9.680;2023-05-16T16:48:15;17.00;55.40
298;DHT22;133;49.626;9.680;2023-05-16T16:50:41;17.10;54.80
298;DHT22;133;49.626;9.680;2023-05-16T16:53:07;17.20;55.40
298;DHT22;133;49.626;9.680;2023-05-16T16:55:34;17.40;53.40
298;DHT22;133;49.626;9.680;2023-05-16T16:58:02;17.50;54.10
298;DHT22;133;49.626;9.680;2023-05-16T17:00:27;17.60;53.70
298;DHT22;133;49.626;9.680;2023-05-16T17:02:53;17.50;53.60